createdAt,value
2023-04-08T00:02:19.918Z,96354.44
2023-04-08T00:04:48.288Z,96354.00
2023-04-08T00:07:16.584Z,96352.34
2023-04-08T00:09:44.878Z,96355.03
2023-04-08T00:12:14.702Z,96355.38
2023-04-08T00:14:43.013Z,96353.31
2023-04-08T00:17:11.392Z,96358.78
2023-04-08T00:19:39.715Z,96353.66
2023-04-08T00:22:08.289Z,96351.78
2023-04-08T00:24:36.808Z,96349.31
2023-04-08T00:27:08.408Z,96352.84
2023-04-08T00:29:38.081Z,96346.47
2023-04-08T00:32:06.382Z,96347.19
2023-04-08T00:34:34.633Z,96350.41
2023-04-08T00:37:02.919Z,96349.09
2023-04-08T00:39:31.364Z,96354.19
2023-04-08T00:41:59.629Z,96349.84
2023-04-08T00:44:27.951Z,96357.88
2023-04-08T00:46:57.623Z,96360.19
2023-04-08T00:49:27.934Z,96348.72
2023-04-08T00:51:56.335Z,96360.81
2023-04-08T00:54:24.634Z,96359.06
2023-04-08T00:56:52.876Z,96362.53
2023-04-08T00:59:21.112Z,96356.00
2023-04-08T01:01:56.264Z,96366.53
2023-04-08T01:04:30.556Z,96356.44
2023-04-08T01:07:02.940Z,96362.16
2023-04-08T01:09:33.822Z,96354.81
2023-04-08T01:12:05.946Z,96352.88
2023-04-08T01:14:36.645Z,96354.31
2023-04-08T01:17:05.232Z,96350.88
2023-04-08T01:19:38.790Z,96362.56
2023-04-08T01:22:14.170Z,96358.47
2023-04-08T01:24:44.467Z,96365.22
2023-04-08T01:27:15.452Z,96358.13
2023-04-08T01:29:44.546Z,96370.38
2023-04-08T01:32:13.835Z,96366.81
2023-04-08T01:34:43.054Z,96365.72
2023-04-08T01:37:11.628Z,96355.75
2023-04-08T01:39:40.934Z,96358.63
2023-04-08T01:42:09.362Z,96356.53
2023-04-08T01:44:39.497Z,96353.13
2023-04-08T01:47:07.943Z,96353.13
2023-04-08T01:49:36.692Z,96359.03
2023-04-08T01:52:06.362Z,96359.25
2023-04-08T01:54:35.234Z,96359.53
2023-04-08T01:57:08.878Z,96356.50
2023-04-08T01:59:38.812Z,96349.69
2023-04-08T02:02:08.272Z,96348.97
2023-04-08T02:04:37.057Z,96363.31
2023-04-08T02:07:05.986Z,96353.13
2023-04-08T02:09:34.481Z,96361.34
2023-04-08T02:12:02.749Z,96359.59
2023-04-08T02:14:31.252Z,96354.81
2023-04-08T02:17:05.058Z,96347.63
2023-04-08T02:19:37.621Z,96355.47
2023-04-08T02:22:08.554Z,96357.63
2023-04-08T02:24:37.289Z,96346.13
2023-04-08T02:27:06.620Z,96359.19
2023-04-08T02:29:35.793Z,96359.72
2023-04-08T02:32:06.815Z,96356.66
2023-04-08T02:34:36.381Z,96362.00
2023-04-08T02:37:04.610Z,96354.59
2023-04-08T02:39:33.189Z,96358.41
2023-04-08T02:42:01.522Z,96361.28
2023-04-08T02:44:29.772Z,96371.50
2023-04-08T02:46:58.050Z,96361.78
2023-04-08T02:49:27.778Z,96364.91
2023-04-08T02:51:56.041Z,96361.66
2023-04-08T02:54:24.972Z,96363.53
2023-04-08T02:56:53.176Z,96366.47
2023-04-08T02:59:21.429Z,96368.47
2023-04-08T03:01:49.758Z,96366.16
2023-04-08T03:04:18.073Z,96358.53
2023-04-08T03:06:47.635Z,96364.97
2023-04-08T03:09:15.882Z,96367.66
2023-04-08T03:11:45.002Z,96374.84
2023-04-08T03:14:13.280Z,96371.22
2023-04-08T03:16:41.584Z,96379.59
2023-04-08T03:19:09.914Z,96371.19
2023-04-08T03:21:38.221Z,96384.78
2023-04-08T03:24:07.996Z,96386.94
2023-04-08T03:26:36.265Z,96383.66
2023-04-08T03:29:04.582Z,96385.94
2023-04-08T03:31:33.243Z,96384.78
2023-04-08T03:34:01.488Z,96376.16
2023-04-08T03:36:29.744Z,96387.59
2023-04-08T03:38:58.088Z,96383.97
2023-04-08T03:41:27.786Z,96388.59
2023-04-08T03:43:56.103Z,96385.63
2023-04-08T03:46:24.574Z,96387.66
2023-04-08T03:48:53.038Z,96390.91
2023-04-08T03:51:21.267Z,96385.63
2023-04-08T03:53:49.905Z,96391.91
2023-04-08T03:56:18.191Z,96393.91
2023-04-08T03:58:47.982Z,96399.03
2023-04-08T04:01:16.413Z,96400.00
2023-04-08T04:03:44.933Z,96399.34
2023-04-08T04:06:13.380Z,96406.13
2023-04-08T04:08:41.660Z,96404.41
2023-04-08T04:11:10.004Z,96401.72
2023-04-08T04:13:38.323Z,96413.53
2023-04-08T04:16:08.207Z,96411.44
2023-04-08T04:18:36.605Z,96416.31
2023-04-08T04:21:06.763Z,96415.22
2023-04-08T04:23:35.286Z,96411.34
2023-04-08T04:26:03.590Z,96414.31
2023-04-08T04:28:31.822Z,96416.00
2023-04-08T04:31:00.070Z,96422.13
2023-04-08T04:33:29.731Z,96417.56
2023-04-08T04:35:58.097Z,96417.88
2023-04-08T04:38:27.112Z,96421.19
2023-04-08T04:40:55.420Z,96420.44
2023-04-08T04:43:23.726Z,96423.09
2023-04-08T04:45:52.427Z,96427.25
2023-04-08T04:48:20.686Z,96424.34
2023-04-08T04:50:57.231Z,96432.16
2023-04-08T04:53:25.495Z,96430.94
2023-04-08T04:55:53.755Z,96434.16
2023-04-08T04:58:22.128Z,96434.69
2023-04-08T05:00:50.389Z,96440.69
2023-04-08T05:03:18.788Z,96428.38
2023-04-08T05:05:51.599Z,96438.69
2023-04-08T05:08:21.498Z,96433.16
2023-04-08T05:10:50.218Z,96438.00
2023-04-08T05:13:18.900Z,96436.78
2023-04-08T05:15:47.219Z,96429.00
2023-04-08T05:18:15.616Z,96439.25
2023-04-08T05:20:43.854Z,96432.03
2023-04-08T05:23:12.230Z,96438.34
2023-04-08T05:25:41.848Z,96437.97
2023-04-08T05:28:10.215Z,96447.22
2023-04-08T05:30:38.426Z,96451.53
2023-04-08T05:33:06.696Z,96453.53
2023-04-08T05:35:34.993Z,96443.28
2023-04-08T05:38:03.224Z,96452.06
2023-04-08T05:40:31.422Z,96445.94
2023-04-08T05:43:01.293Z,96448.03
2023-04-08T05:45:29.998Z,96452.22
2023-04-08T05:47:58.255Z,96456.25
2023-04-08T05:50:27.031Z,96457.69
2023-04-08T05:52:55.586Z,96455.13
2023-04-08T05:55:24.041Z,96456.81
2023-04-08T05:57:52.304Z,96456.25
2023-04-08T06:00:22.273Z,96457.34
2023-04-08T06:02:50.774Z,96460.28
2023-04-08T06:05:19.758Z,96465.19
2023-04-08T06:07:48.039Z,96471.56
2023-04-08T06:10:16.337Z,96467.28
2023-04-08T06:12:44.698Z,96474.72
2023-04-08T06:15:13.059Z,96475.19
2023-04-08T06:17:42.829Z,96473.28
2023-04-08T06:20:11.519Z,96486.50
2023-04-08T06:22:39.958Z,96488.28
2023-04-08T06:25:08.677Z,96487.81
2023-04-08T06:27:37.010Z,96488.69
2023-04-08T06:30:05.837Z,96484.19
2023-04-08T06:32:34.149Z,96487.19
2023-04-08T06:35:03.745Z,96485.50
2023-04-08T06:37:32.047Z,96484.38
2023-04-08T06:40:00.390Z,96487.31
2023-04-08T06:42:28.706Z,96490.31
2023-04-08T06:44:57.007Z,96495.31
2023-04-08T06:47:25.374Z,96498.81
2023-04-08T06:49:54.403Z,96501.28
2023-04-08T06:52:24.123Z,96502.25
2023-04-08T06:54:52.416Z,96502.41
2023-04-08T06:57:20.705Z,96509.22
2023-04-08T06:59:48.927Z,96506.91
2023-04-08T07:02:17.359Z,96505.06
2023-04-08T07:04:46.877Z,96499.56
2023-04-08T07:07:15.354Z,96500.56
2023-04-08T07:09:46.059Z,96501.41
2023-04-08T07:12:14.358Z,96495.78
2023-04-08T07:14:42.619Z,96506.06
2023-04-08T07:17:11.191Z,96513.66
2023-04-08T07:19:39.509Z,96510.75
2023-04-08T07:22:07.755Z,96502.47
2023-04-08T07:24:36.283Z,96522.84
2023-04-08T07:27:06.360Z,96523.34
2023-04-08T07:29:34.647Z,96517.38
2023-04-08T07:32:02.918Z,96518.88
2023-04-08T07:34:31.150Z,96526.22
2023-04-08T07:36:59.415Z,96524.41
2023-04-08T07:39:27.742Z,96527.53
2023-04-08T07:41:56.054Z,96534.25
2023-04-08T07:44:25.750Z,96538.19
2023-04-08T07:46:54.030Z,96534.84
2023-04-08T07:49:22.262Z,96541.28
2023-04-08T07:51:50.613Z,96541.16
2023-04-08T07:54:18.898Z,96543.63
2023-04-08T07:56:47.224Z,96543.53
2023-04-08T07:59:15.715Z,96539.28
2023-04-08T08:01:46.895Z,96542.09
2023-04-08T08:04:15.761Z,96548.81
2023-04-08T08:06:44.229Z,96543.63
2023-04-08T08:09:12.570Z,96550.69
2023-04-08T08:11:40.881Z,96553.50
2023-04-08T08:14:09.155Z,96551.50
2023-04-08T08:16:38.811Z,96541.56
2023-04-08T08:19:08.881Z,96540.38
2023-04-08T08:21:38.157Z,96536.78
2023-04-08T08:24:06.992Z,96543.00
2023-04-08T08:26:36.738Z,96543.94
2023-04-08T08:29:05.243Z,96540.16
2023-04-08T08:31:33.532Z,96539.88
2023-04-08T08:34:01.844Z,96546.00
2023-04-08T08:36:32.863Z,96538.13
2023-04-08T08:39:02.403Z,96538.72
2023-04-08T08:41:34.988Z,96537.03
2023-04-08T08:44:04.146Z,96539.88
2023-04-08T08:46:32.456Z,96545.03
2023-04-08T08:49:01.145Z,96545.25
2023-04-08T08:51:32.856Z,96558.81
2023-04-08T08:54:04.324Z,96564.81
2023-04-08T08:56:34.559Z,96559.16
2023-04-08T08:59:02.822Z,96558.19
2023-04-08T09:01:34.786Z,96553.34
2023-04-08T09:04:16.706Z,96556.78
2023-04-08T09:06:47.732Z,96548.94
2023-04-08T09:09:16.047Z,96556.44
2023-04-08T09:11:46.158Z,96563.00
2023-04-08T09:14:21.763Z,96558.47
2023-04-08T09:16:50.411Z,96558.19
2023-04-08T09:19:18.894Z,96563.47
2023-04-08T09:22:05.932Z,96563.56
2023-04-08T09:24:34.313Z,96570.03
2023-04-08T09:27:02.560Z,96574.16
2023-04-08T09:29:33.497Z,96580.69
2023-04-08T09:32:02.974Z,96582.22
2023-04-08T09:34:34.251Z,96577.91
2023-04-08T09:37:04.149Z,96569.19
2023-04-08T09:39:32.595Z,96570.78
2023-04-08T09:42:02.102Z,96578.81
2023-04-08T09:44:31.193Z,96577.78
2023-04-08T09:47:06.581Z,96576.75
2023-04-08T09:49:39.730Z,96577.19
2023-04-08T09:52:12.341Z,96580.47
2023-04-08T09:54:45.542Z,96576.00
2023-04-08T09:57:18.035Z,96592.47
2023-04-08T09:59:51.305Z,96600.28
2023-04-08T10:02:24.763Z,96596.31
2023-04-08T10:04:56.168Z,96602.31
2023-04-08T10:07:25.966Z,96594.66
2023-04-08T10:09:54.360Z,96590.94
2023-04-08T10:12:22.720Z,96588.88
2023-04-08T10:15:27.598Z,96603.72
2023-04-08T10:17:57.067Z,96599.03
2023-04-08T10:20:44.870Z,96602.44
2023-04-08T10:23:15.580Z,96596.84
2023-04-08T10:25:45.291Z,96603.38
2023-04-08T10:28:26.287Z,96601.78
2023-04-08T10:30:55.746Z,96607.81
2023-04-08T10:33:25.477Z,96606.00
2023-04-08T10:36:01.045Z,96604.34
2023-04-08T10:38:30.671Z,96595.03
2023-04-08T10:40:59.214Z,96599.88
2023-04-08T10:43:27.755Z,96601.00
2023-04-08T10:45:56.114Z,96607.34
2023-04-08T10:48:25.637Z,96595.13
2023-04-08T10:50:55.447Z,96601.97
2023-04-08T10:53:32.438Z,96600.16
2023-04-08T10:56:07.661Z,96601.75
2023-04-08T10:58:36.715Z,96608.31
2023-04-08T11:01:06.780Z,96603.75
2023-04-08T11:03:35.902Z,96611.53
2023-04-08T11:06:04.838Z,96605.41
2023-04-08T11:08:34.995Z,96604.22
2023-04-08T11:11:04.167Z,96613.00
2023-04-08T11:13:32.889Z,96625.94
2023-04-08T11:16:02.728Z,96621.47
2023-04-08T11:18:32.205Z,96617.06
2023-04-08T11:21:01.733Z,96617.03
2023-04-08T11:23:30.594Z,96621.72
2023-04-08T11:26:00.422Z,96618.38
2023-04-08T11:28:29.363Z,96626.44
2023-04-08T11:30:58.095Z,96624.53
2023-04-08T11:33:27.310Z,96633.09
2023-04-08T11:35:56.674Z,96626.31
2023-04-08T11:38:25.879Z,96625.81
2023-04-08T11:40:54.882Z,96630.47
2023-04-08T11:43:24.643Z,96621.72
2023-04-08T11:45:53.088Z,96634.56
2023-04-08T11:48:21.760Z,96627.84
2023-04-08T11:50:51.671Z,96627.00
2023-04-08T11:53:21.379Z,96624.00
2023-04-08T11:55:50.286Z,96627.69
2023-04-08T11:58:19.072Z,96631.66
2023-04-08T12:00:49.240Z,96630.50
2023-04-08T12:03:17.809Z,96625.81
2023-04-08T12:05:46.579Z,96632.63
2023-04-08T12:08:14.892Z,96634.63
2023-04-08T12:10:43.182Z,96635.81
2023-04-08T12:13:11.514Z,96639.50
2023-04-08T12:15:40.069Z,96635.13
2023-04-08T12:18:09.712Z,96625.16
2023-04-08T12:20:38.030Z,96633.38
2023-04-08T12:23:08.059Z,96636.44
2023-04-08T12:25:36.672Z,96639.28
2023-04-08T12:28:04.962Z,96640.44
2023-04-08T12:30:33.407Z,96646.22
2023-04-08T12:33:02.488Z,96639.28
2023-04-08T12:35:33.765Z,96645.91
2023-04-08T12:38:02.097Z,96640.94
2023-04-08T12:40:30.612Z,96645.91
2023-04-08T12:42:58.870Z,96650.88
2023-04-08T12:45:27.081Z,96643.78
2023-04-08T12:47:58.192Z,96645.94
2023-04-08T12:50:26.684Z,96644.56
2023-04-08T12:52:56.919Z,96649.59
2023-04-08T12:55:26.079Z,96652.41
2023-04-08T12:57:54.433Z,96652.22
2023-04-08T13:00:23.065Z,96644.75
2023-04-08T13:02:51.516Z,96639.16
2023-04-08T13:05:26.292Z,96634.25
2023-04-08T13:08:02.995Z,96637.31
2023-04-08T13:10:31.310Z,96644.16
2023-04-08T13:12:59.650Z,96653.41
2023-04-08T13:15:28.306Z,96637.88
2023-04-08T13:17:57.249Z,96644.28
2023-04-08T13:20:26.325Z,96635.22
2023-04-08T13:22:54.995Z,96635.72
2023-04-08T13:25:25.059Z,96634.69
2023-04-08T13:27:53.479Z,96637.34
2023-04-08T13:30:21.844Z,96635.38
2023-04-08T13:32:50.206Z,96639.59
2023-04-08T13:35:18.526Z,96638.63
2023-04-08T13:37:47.045Z,96639.72
2023-04-08T13:40:15.346Z,96634.56
2023-04-08T13:42:44.996Z,96634.34
2023-04-08T13:45:13.222Z,96631.50
2023-04-08T13:47:41.765Z,96631.78
2023-04-08T13:50:10.902Z,96640.06
2023-04-08T13:52:39.147Z,96635.25
2023-04-08T13:55:08.133Z,96638.97
2023-04-08T13:57:36.697Z,96644.38
2023-04-08T14:00:07.798Z,96638.53
2023-04-08T14:02:36.124Z,96637.03
2023-04-08T14:05:05.058Z,96639.53
2023-04-08T14:07:33.326Z,96653.16
2023-04-08T14:10:01.625Z,96646.22
2023-04-08T14:12:29.846Z,96651.78
2023-04-08T14:14:58.251Z,96654.16
2023-04-08T14:17:27.975Z,96653.44
2023-04-08T14:19:56.245Z,96661.94
2023-04-08T14:22:24.537Z,96660.78
2023-04-08T14:24:52.765Z,96658.53
2023-04-08T14:27:21.320Z,96655.13
2023-04-08T14:29:49.539Z,96665.88
2023-04-08T14:32:17.870Z,96660.81
2023-04-08T14:34:47.581Z,96665.78
2023-04-08T14:37:17.823Z,96671.69
2023-04-08T14:39:46.334Z,96666.94
2023-04-08T14:42:16.570Z,96666.47
2023-04-08T14:44:45.315Z,96655.72
2023-04-08T14:47:13.596Z,96665.47
2023-04-08T14:49:41.925Z,96677.13
2023-04-08T14:52:11.503Z,96665.50
2023-04-08T14:54:39.781Z,96669.03
2023-04-08T14:57:08.159Z,96673.00
2023-04-08T14:59:36.426Z,96682.22
2023-04-08T15:02:04.814Z,96670.25
2023-04-08T15:04:33.262Z,96678.19
2023-04-08T15:07:02.002Z,96681.69
2023-04-08T15:09:31.600Z,96686.59
2023-04-08T15:12:00.013Z,96680.94
2023-04-08T15:14:28.684Z,96688.09
2023-04-08T15:16:56.965Z,96690.09
2023-04-08T15:19:25.228Z,96695.63
2023-04-08T15:21:53.571Z,96694.94
2023-04-08T15:24:21.900Z,96695.47
2023-04-08T15:26:51.548Z,96696.63
2023-04-08T15:29:19.809Z,96694.38
2023-04-08T15:31:48.043Z,96703.00
2023-04-08T15:34:16.340Z,96700.63
2023-04-08T15:36:45.281Z,96700.22
2023-04-08T15:39:13.546Z,96698.19
2023-04-08T15:41:41.860Z,96701.19
2023-04-08T15:44:11.537Z,96696.88
2023-04-08T15:46:39.786Z,96698.81
2023-04-08T15:49:08.046Z,96697.75
2023-04-08T15:51:36.541Z,96695.59
2023-04-08T15:54:04.727Z,96696.97
2023-04-08T15:56:33.842Z,96702.78
2023-04-08T15:59:02.113Z,96697.44
2023-04-08T16:01:33.170Z,96706.63
2023-04-08T16:04:01.923Z,96706.19
2023-04-08T16:06:30.288Z,96705.91
2023-04-08T16:08:58.513Z,96715.59
2023-04-08T16:11:26.776Z,96709.69
2023-04-08T16:13:55.001Z,96711.03
2023-04-08T16:16:23.295Z,96719.16
2023-04-08T16:18:53.598Z,96712.88
2023-04-08T16:21:22.045Z,96717.44
2023-04-08T16:23:50.625Z,96726.91
2023-04-08T16:26:19.106Z,96725.75
2023-04-08T16:28:47.352Z,96721.81
2023-04-08T16:31:16.539Z,96728.72
2023-04-08T16:33:45.506Z,96727.16
2023-04-08T16:36:15.247Z,96728.03
2023-04-08T16:38:43.675Z,96729.75
2023-04-08T16:41:11.943Z,96729.09
2023-04-08T16:43:40.235Z,96724.13
2023-04-08T16:46:12.795Z,96732.94
2023-04-08T16:48:41.907Z,96740.03
2023-04-08T16:51:10.515Z,96725.75
2023-04-08T16:53:40.496Z,96732.19
2023-04-08T16:56:14.693Z,96728.63
2023-04-08T16:58:43.186Z,96730.69
2023-04-08T17:01:11.672Z,96740.06
2023-04-08T17:03:40.068Z,96745.75
2023-04-08T17:06:08.956Z,96744.56
2023-04-08T17:08:37.425Z,96747.63
2023-04-08T17:11:10.258Z,96741.91
2023-04-08T17:13:40.006Z,96747.94
2023-04-08T17:16:11.985Z,96757.59
2023-04-08T17:18:40.289Z,96750.88
2023-04-08T17:21:08.776Z,96749.69
2023-04-08T17:23:37.331Z,96765.94
2023-04-08T17:26:08.445Z,96759.06
2023-04-08T17:28:37.108Z,96765.22
2023-04-08T17:31:05.834Z,96758.16
2023-04-08T17:33:34.264Z,96771.38
2023-04-08T17:36:02.683Z,96776.06
2023-04-08T17:38:31.021Z,96769.88
2023-04-08T17:40:59.376Z,96778.72
2023-04-08T17:43:29.043Z,96784.50
2023-04-08T17:46:00.740Z,96775.78
2023-04-08T17:48:29.390Z,96779.63
2023-04-08T17:51:01.695Z,96785.88
2023-04-08T17:53:30.184Z,96787.56
2023-04-08T17:55:58.514Z,96789.06
2023-04-08T17:58:27.226Z,96789.31
2023-04-08T18:00:56.877Z,96792.28
2023-04-08T18:03:25.633Z,96789.81
2023-04-08T18:05:55.196Z,96790.97
2023-04-08T18:08:23.444Z,96788.59
2023-04-08T18:10:51.818Z,96795.31
2023-04-08T18:13:20.062Z,96797.78
2023-04-08T18:15:48.349Z,96803.25
2023-04-08T18:18:20.171Z,96805.09
2023-04-08T18:20:48.484Z,96819.06
2023-04-08T18:23:16.935Z,96821.38
2023-04-08T18:25:47.148Z,96825.03
2023-04-08T18:28:15.632Z,96830.78
2023-04-08T18:30:44.198Z,96823.56
2023-04-08T18:33:12.551Z,96827.22
2023-04-08T18:35:43.293Z,96836.50
2023-04-08T18:38:11.824Z,96840.44
2023-04-08T18:40:40.725Z,96840.59
2023-04-08T18:43:09.649Z,96843.22
2023-04-08T18:45:37.961Z,96852.00
2023-04-08T18:48:06.676Z,96852.31
2023-04-08T18:50:35.293Z,96855.63
2023-04-08T18:53:05.037Z,96853.66
2023-04-08T18:55:35.941Z,96855.84
2023-04-08T18:58:04.760Z,96856.91
2023-04-08T19:00:33.121Z,96859.06
2023-04-08T19:03:03.316Z,96868.66
2023-04-08T19:05:32.990Z,96864.28
2023-04-08T19:08:01.790Z,96868.78
2023-04-08T19:10:32.277Z,96865.63
2023-04-08T19:13:01.065Z,96866.47
2023-04-08T19:15:29.789Z,96865.38
2023-04-08T19:17:59.067Z,96864.19
2023-04-08T19:20:28.556Z,96864.00
2023-04-08T19:22:57.254Z,96874.25
2023-04-08T19:25:25.623Z,96876.03
2023-04-08T19:27:55.247Z,96874.84
2023-04-08T19:30:23.578Z,96872.88
2023-04-08T19:32:52.010Z,96873.34
2023-04-08T19:35:20.290Z,96876.84
2023-04-08T19:37:48.557Z,96877.19
2023-04-08T19:40:16.844Z,96884.38
2023-04-08T19:42:45.754Z,96881.16
2023-04-08T19:45:15.824Z,96882.25
2023-04-08T19:47:44.944Z,96880.53
2023-04-08T19:50:13.537Z,96885.81
2023-04-08T19:52:41.788Z,96892.28
2023-04-08T19:55:11.296Z,96887.88
2023-04-08T19:57:39.580Z,96885.69
2023-04-08T20:00:09.278Z,96891.22
2023-04-08T20:02:39.169Z,96892.19
2023-04-08T20:05:08.050Z,96895.41
2023-04-08T20:07:36.826Z,96893.44
2023-04-08T20:10:05.415Z,96893.78
2023-04-08T20:12:33.733Z,96900.56
2023-04-08T20:15:02.340Z,96894.50
2023-04-08T20:17:30.751Z,96904.03
2023-04-08T20:20:00.556Z,96892.50
2023-04-08T20:22:28.838Z,96904.78
2023-04-08T20:24:57.335Z,96906.78
2023-04-08T20:27:25.657Z,96916.97
2023-04-08T20:29:55.358Z,96903.97
2023-04-08T20:32:24.141Z,96905.88
2023-04-08T20:34:52.424Z,96905.41
2023-04-08T20:37:22.030Z,96902.13
2023-04-08T20:39:50.266Z,96905.00
2023-04-08T20:42:18.620Z,96900.72
2023-04-08T20:44:46.884Z,96901.91
2023-04-08T20:47:15.606Z,96898.22
2023-04-08T20:49:43.883Z,96905.47
2023-04-08T20:52:12.143Z,96902.59
2023-04-08T20:54:41.840Z,96901.25
2023-04-08T20:57:10.353Z,96905.88
2023-04-08T20:59:38.610Z,96906.34
2023-04-08T21:02:07.760Z,96912.50
2023-04-08T21:04:36.062Z,96909.97
2023-04-08T21:07:04.376Z,96914.44
2023-04-08T21:09:32.641Z,96905.59
2023-04-08T21:12:02.911Z,96916.06
2023-04-08T21:14:32.057Z,96916.06
2023-04-08T21:17:00.409Z,96912.38
2023-04-08T21:19:28.670Z,96911.84
2023-04-08T21:21:56.892Z,96909.38
2023-04-08T21:24:25.395Z,96913.59
2023-04-08T21:26:53.660Z,96915.81
2023-04-08T21:29:23.277Z,96910.59
2023-04-08T21:31:51.612Z,96908.03
2023-04-08T21:34:19.854Z,96916.97
2023-04-08T21:36:48.112Z,96909.25
2023-04-08T21:39:16.364Z,96912.31
2023-04-08T21:41:44.651Z,96913.13
2023-04-08T21:44:13.402Z,96912.25
2023-04-08T21:46:43.105Z,96913.41
2023-04-08T21:49:11.863Z,96914.97
2023-04-08T21:51:41.021Z,96920.78
2023-04-08T21:54:09.297Z,96908.97
2023-04-08T21:56:37.642Z,96916.00
2023-04-08T21:59:06.408Z,96912.44
2023-04-08T22:01:34.747Z,96916.84
2023-04-08T22:04:04.677Z,96915.81
2023-04-08T22:06:33.143Z,96918.41
2023-04-08T22:09:01.439Z,96917.53
2023-04-08T22:11:29.842Z,96922.84
2023-04-08T22:13:58.137Z,96920.72
2023-04-08T22:16:26.392Z,96916.88
2023-04-08T22:18:54.927Z,96916.97
2023-04-08T22:21:24.867Z,96916.88
2023-04-08T22:23:53.159Z,96916.13
2023-04-08T22:26:21.566Z,96910.03
2023-04-08T22:28:50.977Z,96913.28
2023-04-08T22:31:19.554Z,96915.97
2023-04-08T22:33:47.978Z,96914.44
2023-04-08T22:36:16.232Z,96917.50
2023-04-08T22:38:46.341Z,96922.38
2023-04-08T22:41:18.861Z,96908.25
2023-04-08T22:43:47.214Z,96912.94
2023-04-08T22:46:15.861Z,96919.94
2023-04-08T22:48:44.118Z,96918.06
2023-04-08T22:51:12.644Z,96918.53
2023-04-08T22:53:41.078Z,96924.19
2023-04-08T22:56:10.698Z,96919.72
2023-04-08T22:58:39.000Z,96916.44
2023-04-08T23:01:14.396Z,96922.63
2023-04-08T23:03:42.738Z,96918.41
2023-04-08T23:06:11.536Z,96921.78
2023-04-08T23:08:39.817Z,96924.78
2023-04-08T23:11:08.501Z,96923.97
2023-04-08T23:13:38.264Z,96923.28
2023-04-08T23:16:06.990Z,96920.81
2023-04-08T23:18:35.365Z,96927.94
2023-04-08T23:21:03.930Z,96923.66
2023-04-08T23:23:32.209Z,96926.94
2023-04-08T23:26:00.611Z,96922.44
2023-04-08T23:28:28.866Z,96923.94
2023-04-08T23:30:58.530Z,96916.63
2023-04-08T23:33:26.924Z,96919.59
2023-04-08T23:35:55.322Z,96929.13
2023-04-08T23:38:23.569Z,96936.47
2023-04-08T23:40:51.852Z,96931.78
2023-04-08T23:43:20.129Z,96928.47
2023-04-08T23:45:48.387Z,96940.56
2023-04-08T23:48:17.995Z,96927.13
2023-04-08T23:50:46.204Z,96932.88
2023-04-08T23:53:14.436Z,96933.03
2023-04-08T23:55:42.685Z,96922.47
2023-04-08T23:58:10.932Z,96920.66
